Time;durP1;ratioP1;P1;durP2;ratioP2;P2;SDS_P1;SDS_P2;PMS_P1;PMS_P2;Temp;Humidity;BMP_temperature;BMP_pressure;BME280_temperature;BME280_humidity;BME280_pressure;Samples;Min_cycle;Max_cycle;Signal;HPM_P1;HPM_P2
2022/10/26 00:00:45;;;;;;;4.30;2.00;;;9.90;99.90;;;;;;5014549;28;20733;-75
2022/10/26 00:03:10;;;;;;;5.17;2.03;;;9.90;99.90;;;;;;5013057;28;20181;-75
2022/10/26 00:05:36;;;;;;;7.00;2.20;;;9.90;99.90;;;;;;5006052;28;20236;-76
2022/10/26 00:08:02;;;;;;;4.97;1.77;;;10.00;99.90;;;;;;4996092;28;20193;-76
2022/10/26 00:10:27;;;;;;;5.07;2.10;;;10.00;99.90;;;;;;4995954;28;20194;-75
2022/10/26 00:12:53;;;;;;;14.40;2.20;;;10.00;99.90;;;;;;5009084;28;20193;-76
2022/10/26 00:15:20;;;;;;;13.50;2.17;;;10.00;99.90;;;;;;5014751;28;20536;-76
2022/10/26 00:17:47;;;;;;;9.27;1.80;;;10.00;99.90;;;;;;5000631;28;20216;-75
2022/10/26 00:20:13;;;;;;;5.53;1.90;;;10.00;99.90;;;;;;5014808;28;20201;-76
2022/10/26 00:22:39;;;;;;;5.20;1.90;;;10.10;99.90;;;;;;4996019;28;20177;-76
2022/10/26 00:25:05;;;;;;;12.03;1.73;;;10.10;99.90;;;;;;4999570;28;20213;-78
2022/10/26 00:27:33;;;;;;;7.30;1.77;;;10.10;99.90;;;;;;5014619;28;20205;-76
2022/10/26 00:30:08;;;;;;;10.67;2.00;;;10.10;99.90;;;;;;5014575;28;20181;-75
2022/10/26 00:32:33;;;;;;;10.73;2.00;;;10.20;99.90;;;;;;5015612;28;20526;-75
2022/10/26 00:34:59;;;;;;;5.07;1.60;;;10.20;99.90;;;;;;5004561;28;20194;-76
2022/10/26 00:37:25;;;;;;;4.60;1.70;;;10.20;99.90;;;;;;5008924;28;20207;-75
2022/10/26 00:39:51;;;;;;;5.93;2.10;;;10.20;99.90;;;;;;5010817;28;20198;-75
2022/10/26 00:42:19;;;;;;;8.50;1.90;;;10.30;99.90;;;;;;5002156;28;20243;-76
2022/10/26 00:44:48;;;;;;;3.73;1.50;;;10.30;99.90;;;;;;5008922;28;20268;-75
2022/10/26 00:47:32;;;;;;;5.80;2.03;;;10.40;99.90;;;;;;5010182;28;20734;-75
2022/10/26 00:50:04;;;;;;;4.93;1.67;;;10.40;99.90;;;;;;5014333;28;20192;-75
2022/10/26 00:52:29;;;;;;;8.40;1.83;;;10.40;99.90;;;;;;5012604;28;20185;-75
2022/10/26 00:54:55;;;;;;;12.07;1.70;;;10.50;99.90;;;;;;5005374;28;20259;-75
2022/10/26 00:57:21;;;;;;;2.10;1.37;;;10.50;99.90;;;;;;5007447;28;20674;-76
2022/10/26 00:59:50;;;;;;;5.70;2.47;;;10.50;99.90;;;;;;4997714;28;20232;-75
2022/10/26 01:02:15;;;;;;;5.17;1.60;;;10.60;99.90;;;;;;5012268;28;20185;-75
2022/10/26 01:04:41;;;;;;;8.83;1.70;;;10.60;99.90;;;;;;5012839;28;20185;-76
2022/10/26 01:07:08;;;;;;;7.47;2.10;;;10.60;99.90;;;;;;5006600;28;20747;-75
2022/10/26 01:09:34;;;;;;;2.67;1.33;;;10.60;99.90;;;;;;5011506;28;20200;-75
2022/10/26 01:12:00;;;;;;;4.30;1.30;;;10.60;99.90;;;;;;5000428;28;20189;-76
2022/10/26 01:14:27;;;;;;;8.50;1.83;;;10.60;99.90;;;;;;5010132;28;20247;-78
2022/10/26 01:17:39;;;;;;;8.70;1.80;;;10.60;99.90;;;;;;5003876;28;20290;-75
2022/10/26 01:20:38;;;;;;;2.50;1.43;;;10.70;99.90;;;;;;5013864;28;20655;-75
2022/10/26 01:23:27;;;;;;;6.40;1.77;;;10.70;99.90;;;;;;4998861;28;20177;-75
2022/10/26 01:26:37;;;;;;;6.60;1.77;;;10.70;99.90;;;;;;4999039;28;20703;-75
2022/10/26 01:29:06;;;;;;;6.57;1.90;;;10.80;99.90;;;;;;5012266;28;20188;-75
2022/10/26 01:32:03;;;;;;;4.37;1.43;;;10.90;99.90;;;;;;5014364;28;20682;-75
2022/10/26 01:34:43;;;;;;;8.63;2.23;;;10.90;99.90;;;;;;5020848;28;20589;-75
2022/10/26 01:37:13;;;;;;;4.33;1.40;;;10.90;99.90;;;;;;5020513;28;20574;-75
2022/10/26 01:39:46;;;;;;;4.97;1.67;;;10.90;99.90;;;;;;5018429;28;20204;-75
2022/10/26 01:42:15;;;;;;;7.80;1.47;;;11.00;99.90;;;;;;5013354;28;20639;-75
2022/10/26 01:45:05;;;;;;;5.30;1.80;;;11.00;99.90;;;;;;5011436;28;20553;-75
2022/10/26 01:47:33;;;;;;;6.90;1.43;;;11.10;99.90;;;;;;4996791;28;20332;-77
2022/10/26 01:50:01;;;;;;;4.03;1.50;;;11.10;99.90;;;;;;5005141;28;20181;-76
2022/10/26 01:52:27;;;;;;;5.70;1.83;;;11.10;99.90;;;;;;5013335;28;20216;-77
2022/10/26 01:55:00;;;;;;;8.07;1.60;;;11.20;99.90;;;;;;4995793;28;20197;-76
2022/10/26 01:57:26;;;;;;;2.47;1.40;;;11.20;99.90;;;;;;5008897;28;20720;-76
2022/10/26 02:00:06;;;;;;;9.00;1.73;;;11.30;99.90;;;;;;5008226;28;20272;-77
2022/10/26 02:03:03;;;;;;;2.60;1.40;;;11.30;99.90;;;;;;5007741;28;20185;-76
2022/10/26 02:06:02;;;;;;;12.80;1.97;;;11.30;99.90;;;;;;4999201;28;20185;-77
2022/10/26 02:09:02;;;;;;;2.83;1.43;;;11.40;99.90;;;;;;5010689;28;20208;-75
2022/10/26 02:11:42;;;;;;;7.17;1.50;;;11.40;99.90;;;;;;5005150;28;20191;-76
2022/10/26 02:14:11;;;;;;;4.77;1.30;;;11.50;99.90;;;;;;5008982;28;20177;-76
2022/10/26 02:16:43;;;;;;;7.77;1.50;;;11.60;99.90;;;;;;5012455;28;20222;-76
2022/10/26 02:19:43;;;;;;;6.33;1.27;;;11.50;99.90;;;;;;5013531;28;20185;-76
2022/10/26 02:22:14;;;;;;;3.67;1.23;;;11.50;99.90;;;;;;5012904;28;20181;-76
2022/10/26 02:24:41;;;;;;;5.77;1.30;;;11.60;99.90;;;;;;5012387;28;20196;-76
2022/10/26 02:27:11;;;;;;;5.73;1.33;;;11.60;99.90;;;;;;5010524;28;20200;-76
2022/10/26 02:29:38;;;;;;;5.17;1.57;;;11.70;99.90;;;;;;5009084;28;20663;-77
2022/10/26 02:32:07;;;;;;;3.30;1.40;;;11.60;99.90;;;;;;4993693;28;20185;-77
2022/10/26 02:34:36;;;;;;;3.63;1.63;;;11.70;99.90;;;;;;4994623;28;20173;-76
2022/10/26 02:37:03;;;;;;;4.73;1.30;;;11.70;99.90;;;;;;5013407;28;20197;-76
2022/10/26 02:39:32;;;;;;;4.37;1.40;;;11.80;99.90;;;;;;5003808;28;20251;-75
2022/10/26 02:42:00;;;;;;;7.70;1.40;;;11.80;99.90;;;;;;5005477;28;20189;-76
2022/10/26 02:44:30;;;;;;;4.47;1.30;;;11.80;99.90;;;;;;5012212;28;20185;-76
2022/10/26 02:46:56;;;;;;;9.13;1.50;;;11.80;99.90;;;;;;5012313;28;20610;-76
2022/10/26 02:49:23;;;;;;;8.80;1.50;;;11.80;99.90;;;;;;5011407;28;20187;-76
2022/10/26 02:51:51;;;;;;;6.30;1.33;;;11.90;99.90;;;;;;4993601;28;20538;-76
2022/10/26 02:54:23;;;;;;;2.17;1.00;;;11.90;99.90;;;;;;4993492;28;20186;-79
2022/10/26 02:56:57;;;;;;;4.70;1.50;;;11.90;99.90;;;;;;5004490;28;20209;-76
2022/10/26 02:59:27;;;;;;;4.87;1.47;;;12.00;99.90;;;;;;5003971;28;20714;-76
2022/10/26 03:01:54;;;;;;;4.03;1.27;;;12.00;99.90;;;;;;5000553;28;20661;-76
2022/10/26 03:04:26;;;;;;;3.30;1.40;;;12.00;99.90;;;;;;4998862;28;20220;-75
2022/10/26 03:06:53;;;;;;;1.77;1.30;;;12.00;99.90;;;;;;4994167;28;20307;-78
2022/10/26 03:09:18;;;;;;;2.50;1.00;;;12.00;99.90;;;;;;4995544;28;20174;-77
2022/10/26 03:11:44;;;;;;;4.33;1.23;;;12.10;99.90;;;;;;5014856;28;20177;-79
2022/10/26 03:14:09;;;;;;;3.57;1.23;;;12.10;99.90;;;;;;5005609;28;20197;-75
2022/10/26 03:16:35;;;;;;;5.03;1.10;;;12.10;99.90;;;;;;5003945;28;20706;-76
2022/10/26 03:19:00;;;;;;;3.97;1.03;;;12.10;99.90;;;;;;5012803;28;20573;-75
2022/10/26 03:21:27;;;;;;;5.23;1.30;;;12.10;99.90;;;;;;5012237;28;20189;-76
2022/10/26 03:23:53;;;;;;;5.57;1.10;;;12.20;99.90;;;;;;5009562;28;20268;-76
2022/10/26 03:26:18;;;;;;;5.87;1.27;;;12.20;99.90;;;;;;4999668;28;20268;-76
2022/10/26 03:28:44;;;;;;;4.13;1.33;;;12.20;99.90;;;;;;5001986;28;20602;-76
2022/10/26 03:31:09;;;;;;;2.60;1.10;;;12.30;99.90;;;;;;5005075;28;20654;-75
2022/10/26 03:33:35;;;;;;;6.10;1.23;;;12.30;99.90;;;;;;5011670;28;20180;-78
2022/10/26 03:36:00;;;;;;;3.17;1.30;;;12.30;99.90;;;;;;4999213;28;20239;-78
2022/10/26 03:38:26;;;;;;;4.53;1.47;;;12.30;99.90;;;;;;5004216;28;20201;-76
2022/10/26 03:40:51;;;;;;;2.07;0.90;;;12.30;99.90;;;;;;5004767;28;20205;-76
2022/10/26 03:43:17;;;;;;;5.03;1.27;;;12.30;99.90;;;;;;5011820;28;20181;-76
2022/10/26 03:45:43;;;;;;;3.20;1.43;;;12.30;99.90;;;;;;4995551;28;20196;-76
2022/10/26 03:48:08;;;;;;;2.10;1.00;;;12.40;99.90;;;;;;5012569;28;20204;-76
2022/10/26 03:50:34;;;;;;;4.77;1.10;;;12.40;99.90;;;;;;5011339;28;20567;-76
2022/10/26 03:52:59;;;;;;;3.33;1.20;;;12.40;99.90;;;;;;5015511;28;20663;-76
2022/10/26 03:55:25;;;;;;;2.57;1.30;;;12.50;99.90;;;;;;5007051;28;20651;-76
2022/10/26 03:57:50;;;;;;;5.37;1.23;;;12.50;99.90;;;;;;5015358;28;20714;-75
2022/10/26 04:00:16;;;;;;;6.23;1.33;;;12.60;99.90;;;;;;5015218;28;20203;-76
2022/10/26 04:02:46;;;;;;;2.53;1.40;;;12.60;99.90;;;;;;5013381;28;20185;-77
2022/10/26 04:05:13;;;;;;;3.60;1.17;;;12.60;99.90;;;;;;5008816;28;20191;-78
2022/10/26 04:07:38;;;;;;;2.87;1.33;;;12.70;99.90;;;;;;5010843;28;20244;-75
2022/10/26 04:10:04;;;;;;;3.17;0.90;;;12.70;99.90;;;;;;5000195;28;20213;-77
2022/10/26 04:12:30;;;;;;;6.13;1.10;;;12.70;99.90;;;;;;5004676;28;20180;-75
2022/10/26 04:14:57;;;;;;;6.73;1.27;;;12.70;99.90;;;;;;5003130;28;20554;-77
2022/10/26 04:17:23;;;;;;;3.23;1.20;;;12.80;99.90;;;;;;5018426;28;20216;-76
2022/10/26 04:19:49;;;;;;;5.53;1.40;;;12.80;99.90;;;;;;5014744;28;20232;-75
2022/10/26 04:22:15;;;;;;;3.60;1.10;;;12.80;99.90;;;;;;5010630;28;20188;-76
2022/10/26 04:24:40;;;;;;;3.33;0.93;;;12.90;99.90;;;;;;4996894;28;20268;-78
2022/10/26 04:27:06;;;;;;;4.60;1.67;;;12.90;99.90;;;;;;5014106;28;20203;-76
2022/10/26 04:29:31;;;;;;;1.13;0.93;;;13.00;99.90;;;;;;5013578;28;20204;-76
2022/10/26 04:31:57;;;;;;;3.80;1.30;;;13.00;99.90;;;;;;5013140;28;20192;-76
2022/10/26 04:34:22;;;;;;;3.83;1.23;;;13.00;99.90;;;;;;5004664;28;20181;-76
2022/10/26 04:36:48;;;;;;;5.27;1.33;;;13.00;99.90;;;;;;5021210;28;20345;-76
2022/10/26 04:39:13;;;;;;;5.63;1.17;;;13.10;99.90;;;;;;5010262;28;20211;-77
2022/10/26 04:41:39;;;;;;;10.67;1.57;;;13.00;99.90;;;;;;5011612;28;20520;-76
2022/10/26 04:44:04;;;;;;;3.30;1.10;;;13.20;99.90;;;;;;5014376;28;20177;-76
2022/10/26 04:46:30;;;;;;;4.20;1.23;;;13.20;99.90;;;;;;5016581;28;20181;-78
2022/10/26 04:48:56;;;;;;;5.67;1.30;;;13.20;99.90;;;;;;5016230;28;20200;-77
2022/10/26 04:51:21;;;;;;;4.03;1.40;;;13.20;99.90;;;;;;5017231;28;20251;-78
2022/10/26 04:53:47;;;;;;;2.10;1.00;;;13.20;99.90;;;;;;5017058;28;20195;-78
2022/10/26 04:56:12;;;;;;;5.17;0.83;;;13.20;99.90;;;;;;5016991;28;20183;-77
2022/10/26 04:58:38;;;;;;;2.33;1.03;;;13.30;99.90;;;;;;5015928;28;20288;-78
2022/10/26 05:01:03;;;;;;;3.13;1.30;;;13.30;99.90;;;;;;5017207;28;20231;-79
2022/10/26 05:03:29;;;;;;;3.03;0.90;;;13.30;99.90;;;;;;5016189;28;20188;-78
2022/10/26 05:05:58;;;;;;;4.70;1.20;;;13.40;99.90;;;;;;5016866;28;20205;-78
2022/10/26 05:08:24;;;;;;;5.30;1.10;;;13.40;99.90;;;;;;5016797;28;20283;-78
2022/10/26 05:10:49;;;;;;;4.80;1.40;;;13.40;99.90;;;;;;5016307;28;20208;-77
2022/10/26 05:13:16;;;;;;;1.50;0.90;;;13.40;99.90;;;;;;5016890;28;20657;-77
2022/10/26 05:15:41;;;;;;;5.33;1.50;;;13.40;99.90;;;;;;5016861;28;20651;-77
2022/10/26 05:18:08;;;;;;;5.87;1.07;;;13.40;99.90;;;;;;5016366;28;20216;-78
2022/10/26 05:20:34;;;;;;;4.47;1.20;;;13.40;99.90;;;;;;5016477;28;20623;-78
2022/10/26 05:23:05;;;;;;;2.30;1.10;;;13.40;99.90;;;;;;5016123;28;20636;-76
2022/10/26 05:25:34;;;;;;;3.27;1.27;;;13.40;99.90;;;;;;5016506;28;20166;-77
2022/10/26 05:28:12;;;;;;;7.67;1.40;;;13.40;99.90;;;;;;5016601;28;20221;-77
2022/10/26 05:30:37;;;;;;;1.83;1.23;;;13.50;99.90;;;;;;5018455;28;20165;-79
2022/10/26 05:33:03;;;;;;;3.90;1.00;;;13.40;99.90;;;;;;5015997;28;20231;-78
2022/10/26 05:35:30;;;;;;;2.97;1.13;;;13.40;99.90;;;;;;5015895;28;20635;-77
2022/10/26 05:37:56;;;;;;;9.63;1.03;;;13.40;99.90;;;;;;5016430;28;20193;-80
2022/10/26 05:40:22;;;;;;;2.63;1.00;;;13.40;99.90;;;;;;5023674;28;20203;-80
2022/10/26 05:42:49;;;;;;;6.70;1.33;;;13.40;99.90;;;;;;5017419;28;20181;-78
2022/10/26 05:45:16;;;;;;;8.20;1.13;;;13.30;99.90;;;;;;5017233;28;20247;-78
2022/10/26 05:47:43;;;;;;;5.23;1.40;;;13.40;99.90;;;;;;5018181;28;20561;-77
2022/10/26 05:50:10;;;;;;;4.13;1.27;;;13.40;99.90;;;;;;5018060;28;20175;-78
2022/10/26 05:52:39;;;;;;;4.00;1.20;;;13.30;99.90;;;;;;5018181;28;20173;-78
2022/10/26 05:55:11;;;;;;;3.90;1.10;;;13.30;99.90;;;;;;5017984;28;20255;-77
2022/10/26 05:57:37;;;;;;;2.97;1.37;;;13.30;99.90;;;;;;5015728;28;20291;-78
2022/10/26 06:00:07;;;;;;;2.47;1.20;;;13.30;99.90;;;;;;5016540;28;20567;-77
2022/10/26 06:02:45;;;;;;;4.43;1.10;;;13.30;99.90;;;;;;5017819;28;20169;-78
2022/10/26 06:05:18;;;;;;;2.23;1.00;;;13.30;99.90;;;;;;5017410;28;20168;-78
2022/10/26 06:07:44;;;;;;;3.47;0.90;;;13.30;99.90;;;;;;5027549;28;20185;-80
2022/10/26 06:10:11;;;;;;;7.17;1.00;;;13.30;99.90;;;;;;5037661;28;20183;-78
2022/10/26 06:12:36;;;;;;;3.60;1.27;;;13.30;99.90;;;;;;5037902;28;20163;-80
2022/10/26 06:15:03;;;;;;;3.03;1.20;;;13.30;99.90;;;;;;5024474;28;20189;-80
2022/10/26 06:17:45;;;;;;;8.47;1.40;;;13.40;99.90;;;;;;5024163;28;20694;-82
2022/10/26 06:20:29;;;;;;;2.73;1.20;;;13.30;99.90;;;;;;5017308;28;20201;-81
2022/10/26 06:23:15;;;;;;;5.13;0.90;;;13.30;99.90;;;;;;5039101;28;20573;-82
2022/10/26 06:25:49;;;;;;;4.90;1.50;;;13.30;99.90;;;;;;5040900;28;20153;-82
2022/10/26 06:28:18;;;;;;;3.07;1.00;;;13.40;99.90;;;;;;5042481;28;20663;-81
2022/10/26 06:30:44;;;;;;;3.77;1.40;;;13.40;99.90;;;;;;5042158;28;20176;-81
2022/10/26 06:33:12;;;;;;;6.80;0.90;;;13.40;99.90;;;;;;5043098;28;20263;-81
2022/10/26 06:35:42;;;;;;;4.07;1.50;;;13.40;99.90;;;;;;5042485;28;20172;-81
2022/10/26 06:38:12;;;;;;;2.40;1.07;;;13.40;99.90;;;;;;5043030;28;20241;-82
2022/10/26 06:40:41;;;;;;;4.23;1.30;;;13.40;99.90;;;;;;5042270;28;20245;-81
2022/10/26 06:43:24;;;;;;;3.17;1.00;;;13.40;99.90;;;;;;5042616;28;20173;-81
2022/10/26 06:45:59;;;;;;;2.57;1.07;;;13.40;99.90;;;;;;5042926;28;20206;-82
2022/10/26 06:48:28;;;;;;;1.33;0.70;;;13.40;99.90;;;;;;5041972;28;20214;-82
2022/10/26 06:50:54;;;;;;;3.40;0.80;;;13.40;99.90;;;;;;5041486;28;20227;-82
2022/10/26 06:53:43;;;;;;;3.00;0.97;;;13.40;99.90;;;;;;5042760;28;20199;-82
2022/10/26 06:56:10;;;;;;;1.80;0.90;;;13.50;99.90;;;;;;5041943;28;20168;-82
2022/10/26 06:58:37;;;;;;;8.17;1.43;;;13.50;99.90;;;;;;5041740;28;20259;-81
2022/10/26 07:01:03;;;;;;;1.47;0.80;;;13.50;99.90;;;;;;5042428;28;20690;-81
2022/10/26 07:03:29;;;;;;;1.83;0.90;;;13.60;99.90;;;;;;5040885;28;20264;-81
2022/10/26 07:05:54;;;;;;;2.80;1.33;;;13.60;99.90;;;;;;5041108;28;20210;-81
2022/10/26 07:08:20;;;;;;;3.60;1.07;;;13.60;99.90;;;;;;5041111;28;20278;-81
2022/10/26 07:10:45;;;;;;;4.00;0.90;;;13.70;99.90;;;;;;5042132;28;20236;-82
2022/10/26 07:13:11;;;;;;;1.67;0.63;;;13.70;99.90;;;;;;5043300;28;20188;-81
2022/10/26 07:15:38;;;;;;;3.07;0.80;;;13.70;99.90;;;;;;5043585;28;20192;-81
2022/10/26 07:18:05;;;;;;;3.13;0.90;;;13.80;99.90;;;;;;5045001;28;20204;-81
2022/10/26 07:20:34;;;;;;;2.47;0.90;;;13.80;99.90;;;;;;5045677;28;20184;-82
2022/10/26 07:23:00;;;;;;;2.63;0.90;;;13.80;99.90;;;;;;5045720;28;20187;-82
2022/10/26 07:25:26;;;;;;;2.67;0.97;;;13.80;99.90;;;;;;5047977;28;20168;-82
2022/10/26 07:27:57;;;;;;;3.67;1.30;;;13.80;99.90;;;;;;5050725;28;20188;-81
2022/10/26 07:30:23;;;;;;;4.30;1.37;;;13.90;99.90;;;;;;5060859;28;20153;-81
2022/10/26 07:32:48;;;;;;;1.93;0.97;;;13.90;99.90;;;;;;5062075;28;20176;-81
2022/10/26 07:35:14;;;;;;;3.03;0.90;;;13.90;99.90;;;;;;5051933;28;20207;-81
2022/10/26 07:37:39;;;;;;;5.13;1.30;;;13.90;99.90;;;;;;5045921;28;20210;-81
2022/10/26 07:40:06;;;;;;;1.50;0.90;;;14.00;99.90;;;;;;5046448;28;20196;-80
2022/10/26 07:42:31;;;;;;;2.97;1.03;;;14.00;99.90;;;;;;5045485;28;20176;-81
2022/10/26 07:44:57;;;;;;;4.40;0.93;;;14.00;99.90;;;;;;5045436;28;20195;-82
2022/10/26 07:47:22;;;;;;;4.77;1.17;;;14.10;99.90;;;;;;5046083;28;20211;-82
2022/10/26 07:49:48;;;;;;;2.23;1.17;;;14.10;99.90;;;;;;5044654;28;20179;-81
2022/10/26 07:52:13;;;;;;;3.10;1.07;;;14.20;99.90;;;;;;5044373;28;20211;-81
2022/10/26 07:54:39;;;;;;;5.07;1.30;;;14.20;99.90;;;;;;5044664;28;20592;-81
2022/10/26 07:57:04;;;;;;;3.80;1.10;;;14.30;99.90;;;;;;5043647;28;20192;-82
2022/10/26 07:59:30;;;;;;;4.67;1.47;;;14.30;99.90;;;;;;5044506;28;20211;-82
2022/10/26 08:01:55;;;;;;;3.40;1.23;;;14.40;99.90;;;;;;5044893;28;20188;-82
2022/10/26 08:04:21;;;;;;;4.40;1.20;;;14.40;99.90;;;;;;5044400;28;20187;-82
2022/10/26 08:06:47;;;;;;;5.13;1.10;;;14.40;99.90;;;;;;5043950;28;20193;-81
2022/10/26 08:09:13;;;;;;;4.70;1.37;;;14.50;99.90;;;;;;5044989;28;20172;-82
2022/10/26 08:11:38;;;;;;;4.00;0.97;;;14.50;99.90;;;;;;5044517;28;20700;-81
2022/10/26 08:14:04;;;;;;;2.33;1.10;;;14.50;99.90;;;;;;5044462;28;20183;-81
2022/10/26 08:16:30;;;;;;;3.67;1.03;;;14.60;99.90;;;;;;5043975;28;20204;-82
2022/10/26 08:18:56;;;;;;;2.67;1.43;;;14.60;99.90;;;;;;5042940;28;20177;-82
2022/10/26 08:21:21;;;;;;;2.67;1.20;;;14.60;99.90;;;;;;5041813;28;20177;-82
2022/10/26 08:23:47;;;;;;;5.27;1.30;;;14.60;99.90;;;;;;5042035;28;20260;-82
2022/10/26 08:26:12;;;;;;;5.30;1.40;;;14.70;99.90;;;;;;5041615;28;20165;-82
2022/10/26 08:28:39;;;;;;;2.20;1.10;;;14.70;99.90;;;;;;5041118;28;20195;-83
2022/10/26 08:31:05;;;;;;;3.03;1.20;;;14.80;99.90;;;;;;5042122;28;20172;-82
2022/10/26 08:33:31;;;;;;;2.83;1.10;;;14.80;99.90;;;;;;5041750;28;20268;-81
2022/10/26 08:35:59;;;;;;;3.40;1.30;;;14.80;99.90;;;;;;5043322;28;20204;-82
2022/10/26 08:38:25;;;;;;;5.47;1.37;;;14.90;99.90;;;;;;5021714;28;20608;-82
2022/10/26 08:40:51;;;;;;;1.87;1.10;;;14.90;99.90;;;;;;5020333;28;20207;-81
2022/10/26 08:43:33;;;;;;;4.73;1.63;;;14.90;99.90;;;;;;5020391;28;20169;-81
2022/10/26 08:46:12;;;;;;;1.93;1.20;;;14.90;99.90;;;;;;5021901;28;20160;-81
2022/10/26 08:48:42;;;;;;;5.17;1.30;;;15.00;99.90;;;;;;5021282;28;20185;-81
2022/10/26 08:51:17;;;;;;;4.67;1.20;;;15.00;99.90;;;;;;5020738;28;20165;-82
2022/10/26 08:53:51;;;;;;;4.30;1.10;;;15.10;99.90;;;;;;5020973;28;20164;-81
2022/10/26 08:56:47;;;;;;;3.57;1.30;;;15.10;99.90;;;;;;5021206;28;20165;-81
2022/10/26 08:59:34;;;;;;;6.80;1.30;;;15.20;99.90;;;;;;5016395;28;20217;-82
2022/10/26 09:02:01;;;;;;;2.17;1.30;;;15.30;99.90;;;;;;5021312;28;20248;-80
2022/10/26 09:04:30;;;;;;;3.20;1.47;;;15.30;99.90;;;;;;5021507;28;20173;-82
2022/10/26 09:07:17;;;;;;;5.33;1.20;;;15.40;99.90;;;;;;5019925;28;20189;-81
2022/10/26 09:09:52;;;;;;;3.40;1.20;;;15.50;99.90;;;;;;5020797;28;20161;-82
2022/10/26 09:12:31;;;;;;;4.30;1.43;;;15.40;99.90;;;;;;5021815;28;20173;-81
2022/10/26 09:15:02;;;;;;;4.43;1.50;;;15.50;99.90;;;;;;5020285;28;20211;-82
2022/10/26 09:18:05;;;;;;;5.73;1.60;;;15.50;99.90;;;;;;5021181;28;20220;-82
2022/10/26 09:20:56;;;;;;;3.13;1.20;;;15.50;99.90;;;;;;5020447;28;20246;-82
2022/10/26 09:23:37;;;;;;;5.93;1.60;;;15.50;99.90;;;;;;5021882;28;20169;-82
2022/10/26 09:26:05;;;;;;;7.23;1.43;;;15.60;99.90;;;;;;5021821;28;20603;-82
2022/10/26 09:28:37;;;;;;;7.60;1.87;;;15.60;99.90;;;;;;5021589;28;20193;-82
2022/10/26 09:31:03;;;;;;;4.50;1.60;;;15.60;99.90;;;;;;5017543;28;20549;-81
2022/10/26 09:33:34;;;;;;;5.53;1.40;;;15.80;99.90;;;;;;5017074;28;20173;-79
2022/10/26 09:36:06;;;;;;;3.17;1.20;;;15.80;99.90;;;;;;5017828;28;20169;-78
2022/10/26 09:38:41;;;;;;;4.13;1.33;;;15.90;99.90;;;;;;5017186;28;20188;-81
2022/10/26 09:41:25;;;;;;;4.93;1.03;;;16.00;99.90;;;;;;5017782;28;20543;-80
2022/10/26 09:44:02;;;;;;;3.80;1.43;;;16.00;99.90;;;;;;5016764;28;20157;-79
2022/10/26 09:46:32;;;;;;;3.03;1.60;;;16.00;99.90;;;;;;5016677;28;20480;-79
2022/10/26 09:49:04;;;;;;;4.87;1.60;;;16.00;99.90;;;;;;5017177;28;20162;-80
2022/10/26 09:51:30;;;;;;;6.13;1.50;;;16.10;99.90;;;;;;5017334;28;20157;-79
2022/10/26 09:53:58;;;;;;;3.20;1.70;;;16.20;99.90;;;;;;5017297;28;20180;-80
2022/10/26 09:56:26;;;;;;;4.40;1.43;;;16.20;99.90;;;;;;5017152;28;20256;-81
2022/10/26 09:58:58;;;;;;;2.90;1.50;;;16.20;99.90;;;;;;5016601;28;20177;-79
2022/10/26 10:01:31;;;;;;;2.47;1.40;;;16.30;99.90;;;;;;5016751;28;20149;-80
2022/10/26 10:04:12;;;;;;;4.80;1.33;;;16.40;99.90;;;;;;5017087;28;20210;-79
2022/10/26 10:06:41;;;;;;;5.30;1.57;;;16.40;99.90;;;;;;5018082;28;20541;-80
2022/10/26 10:09:11;;;;;;;3.40;1.47;;;16.50;99.90;;;;;;5017647;28;20169;-79
2022/10/26 10:11:56;;;;;;;3.73;1.50;;;16.60;99.90;;;;;;5017026;28;20189;-80
2022/10/26 10:14:27;;;;;;;4.10;1.80;;;16.60;99.90;;;;;;5018792;28;20153;-80
2022/10/26 10:16:57;;;;;;;3.77;1.60;;;16.70;99.90;;;;;;5018279;28;20209;-80
2022/10/26 10:19:31;;;;;;;5.53;2.23;;;16.70;99.90;;;;;;5018265;28;20188;-80
2022/10/26 10:22:23;;;;;;;2.60;1.60;;;16.80;99.90;;;;;;5017338;28;20165;-79
2022/10/26 10:25:00;;;;;;;5.90;1.90;;;16.90;99.90;;;;;;5012245;28;20189;-80
2022/10/26 10:27:27;;;;;;;7.03;1.60;;;16.90;99.90;;;;;;5017896;28;20566;-80
2022/10/26 10:29:57;;;;;;;6.53;1.43;;;17.00;99.90;;;;;;5018827;28;20252;-82
2022/10/26 10:32:30;;;;;;;18.07;2.23;;;17.10;99.90;;;;;;5018685;28;20158;-82
2022/10/26 10:34:58;;;;;;;4.30;1.73;;;17.30;99.90;;;;;;5019135;28;20161;-82
2022/10/26 10:37:30;;;;;;;6.00;2.07;;;17.20;99.90;;;;;;5019593;28;20220;-81
2022/10/26 10:40:05;;;;;;;7.43;1.90;;;17.40;99.90;;;;;;5019395;28;20196;-81
2022/10/26 10:42:33;;;;;;;3.67;1.50;;;17.40;99.90;;;;;;5030234;28;20160;-79
2022/10/26 10:45:00;;;;;;;7.03;2.03;;;17.40;99.90;;;;;;5038238;28;20176;-80
2022/10/26 10:47:29;;;;;;;8.23;1.80;;;17.40;99.90;;;;;;5025905;28;20209;-82
2022/10/26 10:50:18;;;;;;;3.80;1.63;;;17.40;99.90;;;;;;5017437;28;20195;-79
2022/10/26 10:52:44;;;;;;;2.60;1.60;;;17.50;99.90;;;;;;5018821;28;20177;-80
2022/10/26 10:55:16;;;;;;;4.57;1.63;;;17.60;99.90;;;;;;5018640;28;20643;-83
2022/10/26 10:58:03;;;;;;;4.87;1.63;;;17.60;99.90;;;;;;5021291;28;20199;-83
2022/10/26 11:00:34;;;;;;;3.23;1.73;;;17.70;99.90;;;;;;5019078;28;20224;-82
2022/10/26 11:03:24;;;;;;;3.27;1.77;;;17.80;99.90;;;;;;5021776;28;20161;-80
2022/10/26 11:06:00;;;;;;;7.23;2.27;;;17.80;99.90;;;;;;5023093;28;20505;-83
2022/10/26 11:08:37;;;;;;;9.00;2.30;;;17.90;99.90;;;;;;5022437;28;20216;-83
2022/10/26 11:11:30;;;;;;;4.93;1.50;;;18.00;99.90;;;;;;5023030;28;20191;-82
2022/10/26 11:14:09;;;;;;;8.03;1.83;;;18.10;99.90;;;;;;5023168;28;20158;-81
2022/10/26 11:16:43;;;;;;;5.03;1.60;;;18.20;99.90;;;;;;5022667;28;20216;-84
2022/10/26 11:19:46;;;;;;;4.70;1.70;;;18.20;99.90;;;;;;5022501;28;20168;-83
2022/10/26 11:22:15;;;;;;;3.70;1.40;;;18.40;99.90;;;;;;5022565;28;20283;-83
2022/10/26 11:24:48;;;;;;;3.03;1.70;;;18.50;99.90;;;;;;5022482;28;20267;-84
2022/10/26 11:27:31;;;;;;;4.13;1.50;;;18.60;99.90;;;;;;5020851;28;20235;-83
2022/10/26 11:30:06;;;;;;;5.30;1.57;;;18.60;99.90;;;;;;5021602;28;20165;-81
2022/10/26 11:32:36;;;;;;;4.13;1.70;;;18.70;99.90;;;;;;5021082;28;20180;-84
2022/10/26 11:35:13;;;;;;;2.93;1.23;;;18.80;99.90;;;;;;5022759;28;20240;-84
2022/10/26 11:37:59;;;;;;;2.47;1.37;;;18.80;99.90;;;;;;5022777;28;20202;-84
2022/10/26 11:40:52;;;;;;;2.37;1.37;;;18.80;99.90;;;;;;5022147;28;20185;-84
2022/10/26 11:43:26;;;;;;;4.30;1.37;;;19.00;99.90;;;;;;5022019;28;20149;-83
2022/10/26 11:46:26;;;;;;;4.27;1.37;;;19.00;99.90;;;;;;5022551;28;20170;-83
2022/10/26 11:49:03;;;;;;;2.13;0.87;;;19.20;99.90;;;;;;4978292;28;20268;-85
2022/10/26 11:51:41;;;;;;;5.27;1.10;;;19.20;99.90;;;;;;5021714;28;20150;-82
2022/10/26 11:54:33;;;;;;;4.03;1.37;;;19.20;99.90;;;;;;5022013;28;20160;-83
2022/10/26 11:57:01;;;;;;;4.43;1.10;;;19.40;99.90;;;;;;5022317;28;20193;-84
2022/10/26 11:59:30;;;;;;;3.13;1.00;;;19.40;99.90;;;;;;5021153;28;20197;-84
2022/10/26 12:02:19;;;;;;;4.63;1.20;;;19.40;99.90;;;;;;5021634;28;20183;-84
2022/10/26 12:04:51;;;;;;;3.40;1.10;;;19.40;99.90;;;;;;5021784;28;20153;-83
2022/10/26 12:07:23;;;;;;;3.03;1.10;;;19.40;99.90;;;;;;5032164;28;20256;-83
2022/10/26 12:09:49;;;;;;;1.87;0.90;;;19.50;99.90;;;;;;5041565;28;20173;-82
2022/10/26 12:12:27;;;;;;;3.47;0.97;;;19.60;99.90;;;;;;5040388;28;20165;-82
2022/10/26 12:15:04;;;;;;;3.03;1.07;;;19.60;99.90;;;;;;5041680;28;20141;-81
2022/10/26 12:17:51;;;;;;;2.97;1.00;;;19.60;99.90;;;;;;5041311;28;20210;-80
2022/10/26 12:20:50;;;;;;;3.87;1.00;;;19.70;99.90;;;;;;5033902;28;20189;-84
2022/10/26 12:23:16;;;;;;;2.20;1.07;;;19.60;1.00;;;;;;5023719;28;20533;-83
2022/10/26 12:25:42;;;;;;;2.63;1.10;;;19.70;1.00;;;;;;5023507;28;20224;-84
2022/10/26 12:28:34;;;;;;;4.53;1.40;;;19.70;1.00;;;;;;5023792;28;20193;-84
2022/10/26 12:31:36;;;;;;;4.57;1.17;;;19.80;1.00;;;;;;5015466;28;20238;-83
2022/10/26 12:34:12;;;;;;;2.20;1.03;;;19.80;1.00;;;;;;5022538;28;20175;-83
2022/10/26 12:36:53;;;;;;;2.70;0.80;;;19.90;1.00;;;;;;5022603;28;20180;-84
2022/10/26 12:39:37;;;;;;;1.10;0.67;;;19.90;1.00;;;;;;5021202;28;22128;-83
2022/10/26 12:42:27;;;;;;;2.77;1.03;;;19.90;99.90;;;;;;5021932;28;20168;-83
2022/10/26 12:44:53;;;;;;;1.57;0.93;;;19.80;99.90;;;;;;5021829;28;20188;-84
2022/10/26 12:47:27;;;;;;;3.00;1.10;;;19.90;99.90;;;;;;5021649;28;20600;-81
2022/10/26 12:50:05;;;;;;;2.60;0.90;;;19.90;99.90;;;;;;5021263;28;20176;-81
2022/10/26 12:52:47;;;;;;;3.40;1.00;;;19.90;1.00;;;;;;5021015;28;20180;-82
2022/10/26 12:55:19;;;;;;;3.53;0.90;;;19.80;1.00;;;;;;5020912;28;20156;-82
2022/10/26 12:58:08;;;;;;;1.17;0.90;;;19.80;1.00;;;;;;5021263;28;20204;-83
2022/10/26 13:00:40;;;;;;;1.77;0.90;;;19.80;1.00;;;;;;5021035;28;20216;-82
2022/10/26 13:03:30;;;;;;;3.27;1.00;;;19.70;1.00;;;;;;5020947;28;20568;-84
2022/10/26 13:06:39;;;;;;;1.80;1.17;;;19.80;1.00;;;;;;5022354;28;20188;-81
2022/10/26 13:09:31;;;;;;;2.87;1.27;;;20.00;99.90;;;;;;5020690;28;20176;-83
2022/10/26 13:12:00;;;;;;;5.03;1.20;;;20.00;99.90;;;;;;5020807;28;20612;-81